createdAt,value
2023-03-19T00:00:46.734Z,88.94
2023-03-19T00:03:13.559Z,89.04
2023-03-19T00:05:40.578Z,88.85
2023-03-19T00:08:09.678Z,88.67
2023-03-19T00:10:40.756Z,88.95
2023-03-19T00:13:08.948Z,88.85
2023-03-19T00:15:36.179Z,88.50
2023-03-19T00:18:03.146Z,88.53
2023-03-19T00:20:29.706Z,88.73
2023-03-19T00:22:56.551Z,88.57
2023-03-19T00:25:23.526Z,88.71
2023-03-19T00:27:50.322Z,88.63
2023-03-19T00:30:23.888Z,88.79
2023-03-19T00:35:49.387Z,89.04
2023-03-19T00:38:17.389Z,88.76
2023-03-19T00:41:07.694Z,89.31
2023-03-19T00:43:37.029Z,89.31
2023-03-19T00:46:16.232Z,89.90
2023-03-19T00:48:50.168Z,90.15
2023-03-19T00:51:22.891Z,89.91
2023-03-19T00:54:14.511Z,90.16
2023-03-19T00:56:53.679Z,90.17
2023-03-19T00:59:30.238Z,90.50
2023-03-19T01:02:01.833Z,90.27
2023-03-19T01:04:31.070Z,90.36
2023-03-19T01:06:57.877Z,90.87
2023-03-19T01:09:25.821Z,90.92
2023-03-19T01:11:52.514Z,90.87
2023-03-19T01:14:19.206Z,90.61
2023-03-19T01:16:46.055Z,90.52
2023-03-19T01:19:14.211Z,90.51
2023-03-19T01:21:40.824Z,90.56
2023-03-19T01:24:07.553Z,90.73
2023-03-19T01:26:34.183Z,90.84
2023-03-19T01:29:13.560Z,90.79
2023-03-19T01:31:40.420Z,90.70
2023-03-19T01:34:25.092Z,90.59
2023-03-19T01:36:55.547Z,90.66
2023-03-19T01:39:29.955Z,90.47
2023-03-19T01:42:01.596Z,90.67
2023-03-19T01:44:45.300Z,90.51
2023-03-19T01:47:41.525Z,90.53
2023-03-19T01:50:23.764Z,90.55
2023-03-19T01:52:56.028Z,90.47
2023-03-19T01:55:29.672Z,90.32
2023-03-19T01:58:20.881Z,90.59
2023-03-19T02:01:11.626Z,90.44
2023-03-19T02:03:43.284Z,90.65
2023-03-19T02:06:26.187Z,90.74
2023-03-19T02:08:53.836Z,90.96
2023-03-19T02:11:21.064Z,91.46
2023-03-19T02:13:48.545Z,91.12
2023-03-19T02:16:15.550Z,91.29
2023-03-19T02:18:43.112Z,91.38
2023-03-19T02:21:11.628Z,91.48
2023-03-19T02:23:47.396Z,91.71
2023-03-19T02:26:21.514Z,91.79
2023-03-19T02:28:51.844Z,91.87
2023-03-19T02:31:24.897Z,91.65
2023-03-19T02:33:59.326Z,91.58
2023-03-19T02:36:28.413Z,91.55
2023-03-19T02:38:58.632Z,91.54
2023-03-19T02:41:28.038Z,91.87
2023-03-19T02:43:55.037Z,91.76
2023-03-19T02:46:21.768Z,91.68
2023-03-19T02:48:48.421Z,92.20
2023-03-19T02:51:15.058Z,92.33
2023-03-19T02:53:41.676Z,92.42
2023-03-19T02:56:08.553Z,92.93
2023-03-19T02:58:36.516Z,93.26
2023-03-19T03:01:03.660Z,93.37
2023-03-19T03:03:31.372Z,93.16
2023-03-19T03:05:57.978Z,92.58
2023-03-19T03:08:24.543Z,92.83
2023-03-19T03:10:51.135Z,92.90
2023-03-19T03:13:17.670Z,93.37
2023-03-19T03:15:45.653Z,93.44
2023-03-19T03:18:12.673Z,93.74
2023-03-19T03:20:39.234Z,93.67
2023-03-19T03:23:05.814Z,93.93
2023-03-19T03:25:32.368Z,93.89
2023-03-19T03:27:59.164Z,94.15
2023-03-19T03:30:25.699Z,93.78
2023-03-19T03:32:53.663Z,93.77
2023-03-19T03:35:21.037Z,93.72
2023-03-19T03:37:48.046Z,93.85
2023-03-19T03:40:15.220Z,93.94
2023-03-19T03:42:42.187Z,94.16
2023-03-19T03:45:10.214Z,93.94
2023-03-19T03:47:37.020Z,94.10
2023-03-19T03:50:07.095Z,94.12
2023-03-19T03:52:33.959Z,93.96
2023-03-19T03:55:00.761Z,94.34
2023-03-19T03:57:27.531Z,94.35
2023-03-19T03:59:55.732Z,94.49
2023-03-19T04:02:23.393Z,94.41
2023-03-19T04:04:49.983Z,94.42
2023-03-19T04:07:17.910Z,94.45
2023-03-19T04:09:47.659Z,94.71
2023-03-19T04:12:14.685Z,94.74
2023-03-19T04:14:42.358Z,94.68
2023-03-19T04:17:10.138Z,95.11
2023-03-19T04:19:37.719Z,94.93
2023-03-19T04:22:04.563Z,94.80
2023-03-19T04:24:33.926Z,94.91
2023-03-19T04:27:00.584Z,94.69
2023-03-19T04:29:27.163Z,95.42
2023-03-19T04:31:53.960Z,95.62
2023-03-19T04:34:20.499Z,95.67
2023-03-19T04:36:47.086Z,95.54
2023-03-19T04:39:13.694Z,95.85
2023-03-19T04:41:41.898Z,95.68
2023-03-19T04:44:27.168Z,95.62
2023-03-19T04:46:54.903Z,95.46
2023-03-19T04:49:22.623Z,95.50
2023-03-19T04:51:50.908Z,95.25
2023-03-19T04:54:17.520Z,94.84
2023-03-19T04:56:45.586Z,94.88
2023-03-19T04:59:12.236Z,95.18
2023-03-19T05:01:39.068Z,95.17
2023-03-19T05:04:08.340Z,96.16
2023-03-19T05:06:36.770Z,95.89
2023-03-19T05:09:05.143Z,96.71
2023-03-19T05:11:32.000Z,97.08
2023-03-19T05:14:17.942Z,97.79
2023-03-19T05:17:01.623Z,97.85
2023-03-19T05:19:37.196Z,97.43
2023-03-19T05:22:04.481Z,96.99
2023-03-19T05:24:31.081Z,97.14
2023-03-19T05:26:58.856Z,97.61
2023-03-19T05:29:29.637Z,97.06
2023-03-19T05:32:17.424Z,97.33
2023-03-19T05:34:44.669Z,97.50
2023-03-19T05:37:11.738Z,97.65
2023-03-19T05:39:38.675Z,97.57
2023-03-19T05:42:08.776Z,97.29
2023-03-19T05:44:37.032Z,97.18
2023-03-19T05:47:18.444Z,97.24
2023-03-19T05:49:52.548Z,97.91
2023-03-19T05:52:19.251Z,97.89
2023-03-19T05:54:47.103Z,97.67
2023-03-19T05:57:28.732Z,97.59
2023-03-19T06:00:10.468Z,97.83
2023-03-19T06:02:37.468Z,97.97
2023-03-19T06:05:20.950Z,97.56
2023-03-19T06:07:48.120Z,98.41
2023-03-19T06:10:25.000Z,98.29
2023-03-19T06:12:54.610Z,98.29
2023-03-19T06:15:40.857Z,98.52
2023-03-19T06:18:22.155Z,98.45
2023-03-19T06:20:49.072Z,98.21
2023-03-19T06:23:17.343Z,97.45
2023-03-19T06:25:44.376Z,98.06
2023-03-19T06:28:11.043Z,97.98
2023-03-19T06:30:43.464Z,98.46
2023-03-19T06:33:36.114Z,98.04
2023-03-19T06:36:04.228Z,97.97
2023-03-19T06:38:32.917Z,97.47
2023-03-19T06:40:59.536Z,98.12
2023-03-19T06:43:26.170Z,97.81
2023-03-19T06:45:54.209Z,97.51
2023-03-19T06:48:20.812Z,97.12
2023-03-19T06:50:47.928Z,96.08
2023-03-19T06:53:14.777Z,96.86
2023-03-19T06:55:41.367Z,96.99
2023-03-19T06:58:07.869Z,97.02
2023-03-19T07:00:34.857Z,96.36
2023-03-19T07:03:02.973Z,96.39
2023-03-19T07:05:29.604Z,96.41
2023-03-19T07:07:56.635Z,96.28
2023-03-19T07:10:23.242Z,95.35
2023-03-19T07:12:50.040Z,94.64
2023-03-19T07:15:16.736Z,94.96
2023-03-19T07:17:45.549Z,95.03
2023-03-19T07:20:14.448Z,95.18
2023-03-19T07:22:41.162Z,94.43
2023-03-19T07:25:08.521Z,94.61
2023-03-19T07:27:35.037Z,94.07
2023-03-19T07:30:01.950Z,93.96
2023-03-19T07:32:28.508Z,93.67
2023-03-19T07:34:55.069Z,93.05
2023-03-19T07:37:22.929Z,93.25
2023-03-19T07:39:49.567Z,91.85
2023-03-19T07:42:16.258Z,92.96
2023-03-19T07:44:42.988Z,92.18
2023-03-19T07:47:22.531Z,90.97
2023-03-19T07:49:54.801Z,90.26
2023-03-19T07:52:22.793Z,88.63
2023-03-19T07:54:49.393Z,88.08
2023-03-19T07:57:16.246Z,87.06
2023-03-19T07:59:43.275Z,86.40
2023-03-19T08:02:10.590Z,85.85
2023-03-19T08:04:37.544Z,85.60
2023-03-19T08:07:04.151Z,84.56
2023-03-19T08:09:32.498Z,84.30
2023-03-19T08:11:59.110Z,83.82
2023-03-19T08:14:25.878Z,83.66
2023-03-19T08:16:52.517Z,84.62
2023-03-19T08:19:19.132Z,84.10
2023-03-19T08:21:45.692Z,82.54
2023-03-19T08:24:12.695Z,80.24
2023-03-19T08:26:40.785Z,79.98
2023-03-19T08:29:07.407Z,80.35
2023-03-19T08:31:33.977Z,80.78
2023-03-19T08:34:00.584Z,81.53
2023-03-19T08:36:27.152Z,81.54
2023-03-19T08:38:53.854Z,80.86
2023-03-19T08:41:20.874Z,80.11
2023-03-19T08:43:49.315Z,80.05
2023-03-19T08:46:16.170Z,78.36
2023-03-19T08:48:42.768Z,78.40
2023-03-19T08:51:10.691Z,77.67
2023-03-19T08:53:38.831Z,77.98
2023-03-19T08:56:07.290Z,77.46
2023-03-19T08:58:34.733Z,76.24
2023-03-19T09:01:03.809Z,75.72
2023-03-19T09:03:30.729Z,76.60
2023-03-19T09:05:58.614Z,77.18
2023-03-19T09:08:25.334Z,78.58
2023-03-19T09:10:51.992Z,79.12
2023-03-19T09:13:18.657Z,80.17
2023-03-19T09:15:45.243Z,80.47
2023-03-19T09:18:13.259Z,81.39
2023-03-19T09:20:39.882Z,81.51
2023-03-19T09:23:06.490Z,81.81
2023-03-19T09:25:33.481Z,82.90
2023-03-19T09:28:00.385Z,84.27
2023-03-19T09:30:27.232Z,85.01
2023-03-19T09:32:53.865Z,85.94
2023-03-19T09:35:21.803Z,86.25
2023-03-19T09:37:50.312Z,86.96
2023-03-19T09:40:24.711Z,87.35
2023-03-19T09:43:00.457Z,87.78
2023-03-19T09:45:28.417Z,88.15
2023-03-19T09:48:00.834Z,88.25
2023-03-19T09:50:29.897Z,88.73
2023-03-19T09:53:01.207Z,88.14
2023-03-19T09:55:41.006Z,88.47
2023-03-19T09:58:13.245Z,88.50
2023-03-19T10:00:40.312Z,88.41
2023-03-19T10:03:22.874Z,88.15
2023-03-19T10:05:59.040Z,88.02
2023-03-19T10:08:41.623Z,88.01
2023-03-19T10:11:18.549Z,87.45
2023-03-19T10:13:56.759Z,87.42
2023-03-19T10:16:26.154Z,87.73
2023-03-19T10:18:55.792Z,85.95
2023-03-19T10:21:28.935Z,84.30
2023-03-19T10:23:59.215Z,84.93
2023-03-19T10:26:29.461Z,85.50
2023-03-19T10:29:02.619Z,84.96
2023-03-19T10:31:37.464Z,84.02
2023-03-19T10:34:14.276Z,84.00
2023-03-19T10:36:42.305Z,83.71
2023-03-19T10:39:08.943Z,82.16
2023-03-19T10:41:46.872Z,82.46
2023-03-19T10:44:25.145Z,81.40
2023-03-19T10:46:51.752Z,81.42
2023-03-19T10:49:18.377Z,81.77
2023-03-19T10:51:46.649Z,82.62
2023-03-19T10:54:22.099Z,82.08
2023-03-19T10:56:49.803Z,80.78
2023-03-19T10:59:23.066Z,80.86
2023-03-19T11:01:49.778Z,80.50
2023-03-19T11:04:19.500Z,80.67
2023-03-19T11:06:50.708Z,78.55
2023-03-19T11:09:23.749Z,79.24
2023-03-19T11:11:53.336Z,80.20
2023-03-19T11:14:24.570Z,77.03
2023-03-19T11:17:05.904Z,76.81
2023-03-19T11:19:33.766Z,78.29
2023-03-19T11:22:14.773Z,77.99
2023-03-19T11:24:48.168Z,78.53
2023-03-19T11:27:14.820Z,78.89
2023-03-19T11:29:43.625Z,79.51
2023-03-19T11:32:37.963Z,77.61
2023-03-19T11:35:10.906Z,77.72
2023-03-19T11:37:51.305Z,77.52
2023-03-19T11:40:26.536Z,75.86
2023-03-19T11:43:06.600Z,75.00
2023-03-19T11:45:42.017Z,74.35
2023-03-19T11:48:34.106Z,75.79
2023-03-19T11:51:06.084Z,76.68
2023-03-19T11:53:41.844Z,74.88
2023-03-19T11:56:20.150Z,74.39
2023-03-19T11:59:17.693Z,74.28
2023-03-19T12:02:13.115Z,75.01
2023-03-19T12:04:54.049Z,73.89
2023-03-19T12:07:28.837Z,73.06
2023-03-19T12:10:07.156Z,72.34
2023-03-19T12:12:41.190Z,70.25
2023-03-19T12:15:19.979Z,70.13
2023-03-19T12:17:58.306Z,71.90
2023-03-19T12:20:37.912Z,69.86
2023-03-19T12:23:17.555Z,69.42
2023-03-19T12:25:57.322Z,67.17
2023-03-19T12:28:28.623Z,66.65
2023-03-19T12:31:22.005Z,66.68
2023-03-19T12:33:52.545Z,67.85
2023-03-19T12:36:24.319Z,66.28
2023-03-19T12:38:54.606Z,66.20
2023-03-19T12:41:25.000Z,67.23
2023-03-19T12:43:56.555Z,66.88
2023-03-19T12:46:25.123Z,67.17
2023-03-19T12:48:56.762Z,67.35
2023-03-19T12:51:26.366Z,67.56
2023-03-19T12:53:58.348Z,68.23
2023-03-19T12:56:32.780Z,68.51
2023-03-19T12:59:05.486Z,69.27
2023-03-19T13:01:37.253Z,70.06
2023-03-19T13:04:10.883Z,68.53
2023-03-19T13:06:44.959Z,70.85
2023-03-19T13:09:19.981Z,70.93
2023-03-19T13:11:54.217Z,68.56
2023-03-19T13:14:26.805Z,69.10
2023-03-19T13:17:01.227Z,69.33
2023-03-19T13:19:33.750Z,69.34
2023-03-19T13:22:04.612Z,70.32
2023-03-19T13:24:34.074Z,71.18
2023-03-19T13:27:02.854Z,72.21
2023-03-19T13:29:31.185Z,73.40
2023-03-19T13:32:01.814Z,74.84
2023-03-19T13:34:31.913Z,76.12
2023-03-19T13:37:08.250Z,76.86
2023-03-19T13:39:36.358Z,78.28
2023-03-19T13:42:23.760Z,76.32
2023-03-19T13:44:53.314Z,77.33
2023-03-19T13:47:39.900Z,78.76
2023-03-19T13:50:51.170Z,81.07
2023-03-19T13:53:38.364Z,81.92
2023-03-19T13:56:15.696Z,83.31
2023-03-19T13:58:52.785Z,83.42
2023-03-19T14:01:39.782Z,83.59
2023-03-19T14:04:15.920Z,84.20
2023-03-19T14:06:46.024Z,83.12
2023-03-19T14:09:31.925Z,83.25
2023-03-19T14:12:10.053Z,83.74
2023-03-19T14:14:41.896Z,85.20
2023-03-19T14:17:15.390Z,86.54
2023-03-19T14:19:42.293Z,86.87
2023-03-19T14:22:18.689Z,86.47
2023-03-19T14:24:57.708Z,86.63
2023-03-19T14:27:28.280Z,87.39
2023-03-19T14:30:00.474Z,88.03
2023-03-19T14:32:34.452Z,89.13
2023-03-19T14:35:04.720Z,90.46
2023-03-19T14:37:40.886Z,91.17
2023-03-19T14:40:11.713Z,91.44
2023-03-19T14:42:43.290Z,91.11
2023-03-19T14:45:45.005Z,87.82
2023-03-19T14:48:36.467Z,88.42
2023-03-19T14:51:36.659Z,91.69
2023-03-19T14:54:06.447Z,93.27
2023-03-19T14:56:34.633Z,91.17
2023-03-19T14:59:02.201Z,90.53
2023-03-19T15:01:29.661Z,89.79
2023-03-19T15:04:00.651Z,90.88
2023-03-19T15:06:33.127Z,91.97
2023-03-19T15:09:00.139Z,91.19
2023-03-19T15:11:46.240Z,89.05
2023-03-19T15:14:34.123Z,88.67
2023-03-19T15:17:06.284Z,89.52
2023-03-19T15:19:36.191Z,88.67
2023-03-19T15:22:11.703Z,87.68
2023-03-19T15:24:38.718Z,85.03
2023-03-19T15:27:16.789Z,82.72
2023-03-19T15:29:44.214Z,79.89
2023-03-19T15:32:11.342Z,79.54
2023-03-19T15:34:39.832Z,78.84
2023-03-19T15:37:10.446Z,77.32
2023-03-19T15:39:42.753Z,77.62
2023-03-19T15:42:10.005Z,76.67
2023-03-19T15:44:41.292Z,78.18
2023-03-19T15:47:11.670Z,78.43
2023-03-19T15:49:43.563Z,80.12
2023-03-19T15:52:12.564Z,80.34
2023-03-19T15:54:39.804Z,80.10
2023-03-19T15:57:08.085Z,79.89
2023-03-19T15:59:35.121Z,80.42
2023-03-19T16:02:03.986Z,80.93
2023-03-19T16:04:30.972Z,81.51
2023-03-19T16:06:59.992Z,81.74
2023-03-19T16:09:32.463Z,81.84
2023-03-19T16:11:59.946Z,82.15
2023-03-19T16:14:31.372Z,82.66
2023-03-19T16:17:02.754Z,83.45
2023-03-19T16:19:35.099Z,83.84
2023-03-19T16:22:11.338Z,84.10
2023-03-19T16:24:41.233Z,83.79
2023-03-19T16:27:12.334Z,84.03
2023-03-19T16:29:40.953Z,84.41
2023-03-19T16:32:18.792Z,84.91
2023-03-19T16:34:47.448Z,85.59
2023-03-19T16:37:31.618Z,85.88
2023-03-19T16:39:59.840Z,86.11
2023-03-19T16:42:36.467Z,86.53
2023-03-19T16:45:17.917Z,87.56
2023-03-19T16:47:46.411Z,88.69
2023-03-19T16:50:13.766Z,89.52
2023-03-19T16:52:43.275Z,90.36
2023-03-19T16:55:18.810Z,90.90
2023-03-19T16:57:47.834Z,90.71
2023-03-19T17:00:15.381Z,90.80
2023-03-19T17:02:42.001Z,91.10
2023-03-19T17:05:13.518Z,91.22
2023-03-19T17:07:42.208Z,91.76
2023-03-19T17:10:12.524Z,93.06
2023-03-19T17:12:39.369Z,94.01
2023-03-19T17:15:13.318Z,94.57
2023-03-19T17:17:39.927Z,96.14
2023-03-19T17:20:14.159Z,97.33
2023-03-19T17:22:42.141Z,95.15
2023-03-19T17:25:12.291Z,94.55
2023-03-19T17:27:38.973Z,93.25
2023-03-19T17:30:07.091Z,92.83
2023-03-19T17:32:33.724Z,92.88
2023-03-19T17:35:00.327Z,92.50
2023-03-19T17:37:29.322Z,92.11
2023-03-19T17:39:57.468Z,91.88
2023-03-19T17:42:24.923Z,91.78
2023-03-19T17:44:51.506Z,92.21
2023-03-19T17:47:18.873Z,93.22
2023-03-19T17:49:45.932Z,93.10
2023-03-19T17:52:15.126Z,93.34
2023-03-19T17:54:41.802Z,92.93
2023-03-19T17:57:12.965Z,92.95
2023-03-19T17:59:40.077Z,92.95
2023-03-19T18:02:22.850Z,93.39
2023-03-19T18:04:52.318Z,94.59
2023-03-19T18:07:19.070Z,95.28
2023-03-19T18:09:45.776Z,96.19
2023-03-19T18:12:13.628Z,96.82
2023-03-19T18:14:40.137Z,97.13
2023-03-19T18:17:06.778Z,97.30
2023-03-19T18:19:35.982Z,96.98
2023-03-19T18:22:06.197Z,97.21
2023-03-19T18:24:32.702Z,97.48
2023-03-19T18:26:59.194Z,97.55
2023-03-19T18:29:27.165Z,97.70
2023-03-19T18:31:53.886Z,97.89
2023-03-19T18:34:20.444Z,97.70
2023-03-19T18:36:47.021Z,97.94
2023-03-19T18:39:14.672Z,97.66
2023-03-19T18:41:41.754Z,97.86
2023-03-19T18:44:09.107Z,97.96
2023-03-19T18:46:38.586Z,97.72
2023-03-19T18:49:12.777Z,97.80
2023-03-19T18:51:45.512Z,97.70
2023-03-19T18:54:21.714Z,97.55
2023-03-19T18:56:48.334Z,97.70
2023-03-19T18:59:20.502Z,97.49
2023-03-19T19:01:48.819Z,97.59
2023-03-19T19:04:16.960Z,97.56
2023-03-19T19:06:47.900Z,97.58
2023-03-19T19:09:14.867Z,98.21
2023-03-19T19:11:44.117Z,98.04
2023-03-19T19:14:15.769Z,98.58
2023-03-19T19:16:42.517Z,99.11
2023-03-19T19:19:16.452Z,99.33
2023-03-19T19:21:43.315Z,99.64
2023-03-19T19:24:09.833Z,99.44
2023-03-19T19:26:36.484Z,99.37
2023-03-19T19:29:04.221Z,99.55
2023-03-19T19:31:33.648Z,99.47
2023-03-19T19:34:00.223Z,99.42
2023-03-19T19:36:29.622Z,99.76
2023-03-19T19:38:56.152Z,99.57
2023-03-19T19:41:25.525Z,99.90
2023-03-19T19:43:53.637Z,100.00
2023-03-19T19:46:23.049Z,100.00
2023-03-19T19:48:49.840Z,99.88
2023-03-19T19:51:19.518Z,100.00
2023-03-19T19:53:47.521Z,99.94
2023-03-19T19:56:16.964Z,99.85
2023-03-19T19:58:45.221Z,100.00
2023-03-19T20:01:15.771Z,100.00
2023-03-19T20:03:42.989Z,100.00
2023-03-19T20:06:09.848Z,100.00
2023-03-19T20:08:36.513Z,99.90
2023-03-19T20:11:13.252Z,99.80
2023-03-19T20:13:40.118Z,100.00
2023-03-19T20:16:07.092Z,99.84
2023-03-19T20:18:33.824Z,100.00
2023-03-19T20:21:00.376Z,100.00
2023-03-19T20:23:26.980Z,100.00
2023-03-19T20:25:53.998Z,100.00
2023-03-19T20:28:24.474Z,100.00
2023-03-19T20:30:52.652Z,100.00
2023-03-19T20:33:19.968Z,100.00
2023-03-19T20:35:46.836Z,100.00
2023-03-19T20:38:14.167Z,100.00
2023-03-19T20:40:43.848Z,100.00
2023-03-19T20:43:22.571Z,100.00
2023-03-19T20:45:50.710Z,100.00
2023-03-19T20:48:17.435Z,100.00
2023-03-19T20:50:45.194Z,100.00
2023-03-19T20:53:12.218Z,100.00
2023-03-19T20:55:40.881Z,100.00
2023-03-19T20:58:14.263Z,100.00
2023-03-19T21:00:40.820Z,100.00
2023-03-19T21:03:17.085Z,100.00
2023-03-19T21:05:44.556Z,100.00
2023-03-19T21:08:14.473Z,100.00
2023-03-19T21:10:42.790Z,100.00
2023-03-19T21:13:13.635Z,100.00
2023-03-19T21:15:40.812Z,100.00
2023-03-19T21:18:07.664Z,100.00
2023-03-19T21:20:37.044Z,100.00
2023-03-19T21:23:09.505Z,100.00
2023-03-19T21:25:36.645Z,100.00
2023-03-19T21:28:06.143Z,100.00
2023-03-19T21:30:41.658Z,100.00
2023-03-19T21:33:19.497Z,100.00
2023-03-19T21:35:47.556Z,100.00
2023-03-19T21:38:14.355Z,100.00
2023-03-19T21:40:41.142Z,100.00
2023-03-19T21:43:15.225Z,100.00
2023-03-19T21:45:42.008Z,100.00
2023-03-19T21:48:23.092Z,100.00
2023-03-19T21:50:51.609Z,100.00
2023-03-19T21:53:18.780Z,100.00
2023-03-19T21:55:45.841Z,100.00
2023-03-19T21:58:13.421Z,100.00
2023-03-19T22:00:40.219Z,100.00
2023-03-19T22:03:06.952Z,100.00
2023-03-19T22:05:34.068Z,100.00
2023-03-19T22:08:02.123Z,100.00
2023-03-19T22:10:29.613Z,100.00
2023-03-19T22:12:58.733Z,100.00
2023-03-19T22:15:32.548Z,100.00
2023-03-19T22:17:59.251Z,100.00
2023-03-19T22:20:25.890Z,100.00
2023-03-19T22:22:52.921Z,100.00
2023-03-19T22:25:21.835Z,100.00
2023-03-19T22:27:49.827Z,100.00
2023-03-19T22:30:22.990Z,100.00
2023-03-19T22:32:51.796Z,100.00
2023-03-19T22:35:19.327Z,100.00
2023-03-19T22:37:46.121Z,100.00
2023-03-19T22:40:15.680Z,100.00
2023-03-19T22:42:43.925Z,100.00
2023-03-19T22:45:20.561Z,100.00
2023-03-19T22:47:47.520Z,100.00
2023-03-19T22:50:21.533Z,100.00
2023-03-19T22:52:48.242Z,100.00
2023-03-19T22:55:14.994Z,100.00
2023-03-19T22:57:43.418Z,100.00
2023-03-19T23:00:14.356Z,100.00
2023-03-19T23:02:41.596Z,100.00
2023-03-19T23:05:24.561Z,100.00
2023-03-19T23:07:51.259Z,100.00
2023-03-19T23:10:19.379Z,100.00
2023-03-19T23:12:47.670Z,100.00
2023-03-19T23:15:14.240Z,100.00
2023-03-19T23:17:40.995Z,99.41
2023-03-19T23:20:12.500Z,99.05
2023-03-19T23:22:39.343Z,98.82
2023-03-19T23:25:12.072Z,98.54
2023-03-19T23:27:38.691Z,99.04
2023-03-19T23:30:18.622Z,98.10
2023-03-19T23:32:45.304Z,99.50
2023-03-19T23:35:16.034Z,99.27
2023-03-19T23:37:42.706Z,99.35
2023-03-19T23:40:10.540Z,99.58
2023-03-19T23:42:38.439Z,99.05
2023-03-19T23:45:15.792Z,98.30
2023-03-19T23:47:42.664Z,97.90
2023-03-19T23:50:12.017Z,97.97
2023-03-19T23:52:38.624Z,97.04
2023-03-19T23:55:06.292Z,96.33
2023-03-19T23:57:33.261Z,96.27
2023-03-19T23:59:59.830Z,96.29
